createdAt,value
2023-11-11T00:17:15.880Z,26.80
2023-11-11T00:19:47.719Z,27.00
2023-11-11T00:22:17.387Z,27.20
2023-11-11T00:24:48.758Z,27.30
2023-11-11T00:27:20.734Z,27.60
2023-11-11T00:29:50.944Z,27.70
2023-11-11T00:32:21.046Z,27.80
2023-11-11T00:34:51.018Z,27.90
2023-11-11T00:37:23.041Z,28.00
2023-11-11T00:39:52.719Z,28.00
2023-11-11T00:42:23.631Z,28.20
2023-11-11T00:44:53.564Z,28.30
2023-11-11T00:47:23.124Z,28.20
2023-11-11T00:49:52.770Z,28.20
2023-11-11T00:52:22.959Z,28.20
2023-11-11T00:54:52.993Z,28.40
2023-11-11T00:57:23.504Z,28.40
2023-11-11T00:59:53.012Z,28.60
2023-11-11T01:02:22.909Z,28.80
2023-11-11T01:04:52.856Z,29.00
2023-11-11T01:07:22.741Z,29.20
2023-11-11T01:09:53.990Z,29.40
2023-11-11T01:12:25.520Z,29.30
2023-11-11T01:14:55.712Z,29.40
2023-11-11T01:17:26.316Z,29.40
2023-11-11T01:19:55.874Z,29.50
2023-11-11T01:22:25.390Z,29.60
2023-11-11T01:24:54.913Z,29.60
2023-11-11T01:27:25.023Z,29.60
2023-11-11T01:29:55.213Z,29.80
2023-11-11T01:32:26.103Z,30.00
2023-11-11T01:34:55.991Z,29.90
2023-11-11T01:37:25.568Z,29.80
2023-11-11T01:39:55.433Z,29.90
2023-11-11T01:42:25.628Z,29.80
2023-11-11T01:44:56.209Z,30.00
2023-11-11T02:14:33.870Z,30.70
2023-11-11T02:17:03.342Z,30.70
2023-11-11T02:19:32.855Z,30.70
2023-11-11T02:22:02.733Z,30.80
2023-11-11T02:24:33.439Z,31.00
2023-11-11T02:27:03.967Z,31.00
2023-11-11T02:29:34.058Z,31.00
2023-11-11T02:32:04.314Z,31.00
2023-11-11T02:34:34.398Z,31.10
2023-11-11T02:37:05.136Z,31.20
2023-11-11T02:39:35.325Z,31.30
2023-11-11T02:42:05.246Z,31.30
2023-11-11T02:44:35.154Z,31.20
2023-11-11T02:47:04.746Z,31.30
2023-11-11T02:49:34.897Z,31.50
2023-11-11T02:52:04.925Z,31.50
2023-11-11T02:54:34.531Z,31.50
2023-11-11T02:57:04.061Z,31.70
2023-11-11T02:59:33.538Z,31.90
2023-11-11T03:02:02.997Z,32.00
2023-11-11T03:04:33.533Z,32.00
2023-11-11T03:07:05.000Z,32.00
2023-11-11T03:09:35.316Z,32.00
2023-11-11T03:12:04.878Z,32.20
2023-11-11T03:14:34.817Z,32.30
2023-11-11T03:17:05.666Z,32.40
2023-11-11T03:19:35.148Z,32.50
2023-11-11T03:22:05.458Z,32.70
2023-11-11T03:24:35.099Z,32.80
2023-11-11T03:27:04.773Z,32.70
2023-11-11T03:29:34.277Z,32.60
2023-11-11T03:32:04.200Z,32.60
2023-11-11T03:34:33.725Z,32.30
2023-11-11T03:37:04.305Z,32.10
2023-11-11T03:39:36.789Z,31.70
2023-11-11T04:16:49.988Z,31.50
2023-11-11T04:19:19.781Z,31.70
2023-11-11T04:21:58.041Z,31.80
2023-11-11T04:24:28.770Z,31.90
2023-11-11T04:26:59.415Z,32.00
2023-11-11T04:29:28.901Z,31.90
2023-11-11T04:31:59.345Z,31.90
2023-11-11T04:34:33.856Z,31.80
2023-11-11T04:37:03.899Z,31.80
2023-11-11T04:39:33.935Z,31.70
2023-11-11T04:42:03.894Z,31.60
2023-11-11T04:44:35.000Z,31.70
2023-11-11T04:47:04.730Z,31.70
2023-11-11T04:49:34.362Z,31.80
2023-11-11T04:52:04.990Z,32.00
2023-11-11T04:54:36.279Z,32.20
2023-11-11T04:57:06.235Z,32.20
2023-11-11T04:59:36.195Z,32.10
2023-11-11T05:02:07.841Z,31.80
2023-11-11T05:04:37.763Z,31.70
2023-11-11T05:07:07.243Z,31.70
2023-11-11T05:09:37.276Z,31.90
2023-11-11T05:12:09.010Z,32.10
2023-11-11T05:14:40.437Z,32.20
2023-11-11T05:17:10.654Z,32.20
2023-11-11T05:19:41.786Z,32.30
2023-11-11T05:22:12.083Z,32.30
2023-11-11T05:24:42.025Z,32.40
2023-11-11T05:27:11.973Z,32.40
2023-11-11T05:29:41.552Z,32.30
2023-11-11T05:32:11.052Z,32.20
2023-11-11T05:34:41.848Z,32.10
2023-11-11T05:37:11.327Z,32.20
2023-11-11T05:39:41.303Z,32.20
2023-11-11T05:42:12.605Z,32.40
2023-11-11T05:44:45.603Z,32.60
2023-11-11T05:47:17.090Z,32.70
2023-11-11T05:49:47.908Z,32.70
2023-11-11T05:52:18.209Z,32.70
2023-11-11T05:54:48.778Z,32.70
2023-11-11T05:57:18.736Z,32.70
2023-11-11T05:59:48.670Z,32.70
2023-11-11T06:02:18.676Z,32.80
2023-11-11T06:04:50.081Z,32.80
2023-11-11T06:07:21.072Z,32.80
2023-11-11T06:09:50.732Z,32.80
2023-11-11T06:12:20.479Z,32.70
2023-11-11T06:14:50.169Z,32.40
2023-11-11T06:17:20.168Z,32.50
2023-11-11T06:19:50.203Z,32.40
2023-11-11T06:22:19.693Z,32.40
2023-11-11T06:24:49.706Z,32.50
2023-11-11T06:27:19.640Z,32.50
2023-11-11T06:29:50.890Z,32.60
2023-11-11T06:32:20.346Z,32.60
2023-11-11T06:34:50.614Z,32.50
2023-11-11T06:37:21.130Z,32.50
2023-11-11T06:39:51.286Z,32.50
2023-11-11T06:42:20.899Z,32.40
2023-11-11T06:44:50.423Z,32.40
2023-11-11T06:47:19.887Z,32.40
2023-11-11T06:49:49.361Z,32.30
2023-11-11T06:52:18.840Z,32.20
2023-11-11T06:54:49.489Z,32.10
2023-11-11T06:57:19.986Z,31.80
2023-11-11T06:59:49.512Z,31.60
2023-11-11T07:02:20.273Z,31.20
2023-11-11T07:04:56.356Z,31.00
2023-11-11T07:07:27.544Z,30.80
2023-11-11T07:09:57.807Z,30.60
2023-11-11T07:12:27.665Z,30.50
2023-11-11T07:53:22.526Z,29.20
2023-11-11T07:55:56.956Z,29.00
2023-11-11T08:00:59.615Z,28.80
2023-11-11T08:03:29.495Z,28.70
2023-11-11T08:05:58.992Z,28.70
2023-11-11T08:08:33.663Z,28.60
2023-11-11T08:11:04.206Z,28.50
2023-11-11T08:13:34.137Z,28.40
2023-11-11T08:16:04.087Z,28.30
2023-11-11T08:18:38.775Z,28.30
2023-11-11T08:21:15.216Z,28.20
2023-11-11T08:23:45.989Z,28.10
2023-11-11T08:26:15.460Z,28.10
2023-11-11T08:28:45.418Z,28.10
2023-11-11T08:31:15.005Z,28.00
2023-11-11T08:33:45.018Z,28.00
2023-11-11T08:36:18.652Z,28.00
2023-11-11T08:38:50.296Z,27.90
2023-11-11T08:41:20.336Z,28.00
2023-11-11T08:43:49.910Z,28.00
2023-11-11T08:46:22.656Z,27.90
2023-11-11T08:48:54.454Z,27.90
2023-11-11T08:51:27.687Z,27.90
2023-11-11T08:53:57.410Z,27.90
2023-11-11T08:56:27.794Z,27.90
2023-11-11T08:58:58.699Z,27.80
2023-11-11T09:01:32.538Z,27.80
2023-11-11T09:04:02.696Z,27.70
2023-11-11T09:06:35.966Z,27.70
2023-11-11T09:09:06.150Z,27.70
2023-11-11T09:11:41.624Z,27.60
2023-11-11T09:14:15.217Z,27.60
2023-11-11T09:16:45.061Z,27.70
2023-11-11T09:19:14.809Z,27.70
2023-11-11T09:21:45.284Z,27.70
2023-11-11T09:24:16.714Z,27.50
2023-11-11T09:29:18.561Z,27.40
2023-11-11T09:31:53.706Z,27.30
2023-11-11T09:34:27.931Z,27.20
2023-11-11T09:36:58.436Z,27.10
2023-11-11T09:39:28.215Z,27.00
2023-11-11T09:41:57.742Z,27.00
2023-11-11T09:47:06.218Z,27.20
2023-11-11T09:49:35.837Z,27.20
2023-11-11T09:52:13.357Z,27.20
2023-11-11T09:54:46.010Z,27.10
2023-11-11T09:57:18.313Z,26.80
2023-11-11T09:59:48.879Z,26.70
2023-11-11T10:02:21.248Z,26.60
2023-11-11T10:04:51.622Z,26.40
2023-11-11T10:07:21.398Z,26.20
2023-11-11T10:09:52.173Z,26.00
2023-11-11T10:12:21.806Z,26.00
2023-11-11T10:14:51.846Z,25.80
2023-11-11T10:17:21.945Z,25.80
2023-11-11T10:19:57.300Z,25.70
2023-11-11T10:22:29.219Z,25.60
2023-11-11T10:24:59.571Z,25.60
2023-11-11T10:27:32.120Z,25.40
2023-11-11T10:30:03.177Z,25.30
2023-11-11T10:32:33.603Z,25.20
2023-11-11T10:35:03.275Z,25.10
2023-11-11T10:37:32.813Z,25.10
2023-11-11T10:40:02.793Z,24.90
2023-11-11T10:42:32.513Z,24.80
2023-11-11T10:45:02.429Z,24.70
2023-11-11T10:47:32.362Z,24.70
2023-11-11T10:50:03.380Z,24.70
2023-11-11T10:52:34.339Z,24.70
2023-11-11T23:48:51.972Z,27.50
2023-11-11T23:51:24.423Z,27.60
2023-11-11T23:53:54.447Z,27.70
2023-11-11T23:56:24.487Z,27.80
2023-11-11T23:58:54.883Z,27.90
